sensor_id;sensor_type;location;lat;lon;timestamp;P1;durP1;ratioP1;P2;durP2;ratioP2
75465;SDS011;64049;46.290;44.240;2022-12-18T00:00:27;110.13;;;16.17;;
75465;SDS011;64049;46.290;44.240;2022-12-18T00:02:53;111.40;;;16.77;;
75465;SDS011;64049;46.290;44.240;2022-12-18T00:05:19;76.72;;;15.70;;
75465;SDS011;64049;46.290;44.240;2022-12-18T00:10:16;85.90;;;17.17;;
75465;SDS011;64049;46.290;44.240;2022-12-18T00:12:43;148.93;;;21.23;;
75465;SDS011;64049;46.290;44.240;2022-12-18T00:15:09;169.00;;;19.35;;
75465;SDS011;64049;46.290;44.240;2022-12-18T00:20:06;121.45;;;19.63;;
75465;SDS011;64049;46.290;44.240;2022-12-18T00:22:32;109.93;;;17.90;;
75465;SDS011;64049;46.290;44.240;2022-12-18T00:24:58;83.45;;;14.02;;
75465;SDS011;64049;46.290;44.240;2022-12-18T00:27:24;62.85;;;11.40;;
75465;SDS011;64049;46.290;44.240;2022-12-18T00:29:50;65.32;;;14.40;;
75465;SDS011;64049;46.290;44.240;2022-12-18T00:32:16;101.32;;;14.57;;
75465;SDS011;64049;46.290;44.240;2022-12-18T00:34:42;97.15;;;15.45;;
75465;SDS011;64049;46.290;44.240;2022-12-18T00:37:19;58.08;;;10.45;;
75465;SDS011;64049;46.290;44.240;2022-12-18T00:39:45;113.85;;;14.90;;
75465;SDS011;64049;46.290;44.240;2022-12-18T00:42:13;132.95;;;19.40;;
75465;SDS011;64049;46.290;44.240;2022-12-18T00:44:57;133.65;;;19.60;;
75465;SDS011;64049;46.290;44.240;2022-12-18T00:47:23;128.93;;;17.55;;
75465;SDS011;64049;46.290;44.240;2022-12-18T00:49:49;93.25;;;15.60;;
75465;SDS011;64049;46.290;44.240;2022-12-18T00:52:15;66.45;;;15.38;;
75465;SDS011;64049;46.290;44.240;2022-12-18T00:54:41;131.05;;;17.08;;
75465;SDS011;64049;46.290;44.240;2022-12-18T00:57:19;102.95;;;13.00;;
75465;SDS011;64049;46.290;44.240;2022-12-18T00:59:45;95.22;;;12.48;;
75465;SDS011;64049;46.290;44.240;2022-12-18T01:02:11;111.35;;;17.35;;
75465;SDS011;64049;46.290;44.240;2022-12-18T01:04:37;82.07;;;14.00;;
75465;SDS011;64049;46.290;44.240;2022-12-18T01:07:04;86.63;;;16.33;;
75465;SDS011;64049;46.290;44.240;2022-12-18T01:09:29;103.03;;;16.55;;
75465;SDS011;64049;46.290;44.240;2022-12-18T01:11:55;43.08;;;9.15;;
75465;SDS011;64049;46.290;44.240;2022-12-18T01:14:21;75.85;;;15.07;;
75465;SDS011;64049;46.290;44.240;2022-12-18T01:19:16;122.05;;;15.15;;
75465;SDS011;64049;46.290;44.240;2022-12-18T01:21:42;134.93;;;16.85;;
75465;SDS011;64049;46.290;44.240;2022-12-18T01:24:09;118.10;;;14.85;;
75465;SDS011;64049;46.290;44.240;2022-12-18T01:29:48;68.38;;;12.30;;
75465;SDS011;64049;46.290;44.240;2022-12-18T01:32:14;152.82;;;17.50;;
75465;SDS011;64049;46.290;44.240;2022-12-18T01:34:40;131.23;;;22.83;;
75465;SDS011;64049;46.290;44.240;2022-12-18T01:40:13;146.55;;;18.23;;
75465;SDS011;64049;46.290;44.240;2022-12-18T01:42:39;69.63;;;12.02;;
75465;SDS011;64049;46.290;44.240;2022-12-18T01:50:36;104.35;;;21.25;;
75465;SDS011;64049;46.290;44.240;2022-12-18T01:53:10;82.73;;;14.47;;
75465;SDS011;64049;46.290;44.240;2022-12-18T01:55:47;74.43;;;12.63;;
75465;SDS011;64049;46.290;44.240;2022-12-18T01:58:18;66.63;;;11.55;;
75465;SDS011;64049;46.290;44.240;2022-12-18T02:00:45;68.78;;;10.90;;
75465;SDS011;64049;46.290;44.240;2022-12-18T02:03:11;64.63;;;12.20;;
75465;SDS011;64049;46.290;44.240;2022-12-18T02:08:27;75.85;;;12.10;;
75465;SDS011;64049;46.290;44.240;2022-12-18T02:11:11;60.15;;;14.38;;
75465;SDS011;64049;46.290;44.240;2022-12-18T02:14:11;91.57;;;13.60;;
75465;SDS011;64049;46.290;44.240;2022-12-18T02:20:16;78.90;;;11.65;;
75465;SDS011;64049;46.290;44.240;2022-12-18T02:28:31;110.38;;;13.65;;
75465;SDS011;64049;46.290;44.240;2022-12-18T02:31:07;51.80;;;12.07;;
75465;SDS011;64049;46.290;44.240;2022-12-18T02:33:39;66.20;;;12.50;;
75465;SDS011;64049;46.290;44.240;2022-12-18T02:36:06;77.90;;;13.85;;
75465;SDS011;64049;46.290;44.240;2022-12-18T02:38:36;75.63;;;14.27;;
75465;SDS011;64049;46.290;44.240;2022-12-18T02:41:09;97.45;;;14.95;;
75465;SDS011;64049;46.290;44.240;2022-12-18T02:43:38;58.80;;;12.52;;
75465;SDS011;64049;46.290;44.240;2022-12-18T03:03:07;39.30;;;9.63;;
75465;SDS011;64049;46.290;44.240;2022-12-18T03:05:52;75.00;;;12.15;;
75465;SDS011;64049;46.290;44.240;2022-12-18T03:08:27;82.35;;;14.43;;
75465;SDS011;64049;46.290;44.240;2022-12-18T03:10:58;66.65;;;12.18;;
75465;SDS011;64049;46.290;44.240;2022-12-18T03:13:34;76.47;;;11.75;;
75465;SDS011;64049;46.290;44.240;2022-12-18T03:16:06;100.05;;;14.45;;
75465;SDS011;64049;46.290;44.240;2022-12-18T03:18:38;80.75;;;13.20;;
75465;SDS011;64049;46.290;44.240;2022-12-18T03:21:12;77.22;;;14.52;;
75465;SDS011;64049;46.290;44.240;2022-12-18T03:23:42;75.57;;;11.65;;
75465;SDS011;64049;46.290;44.240;2022-12-18T03:26:20;110.38;;;15.35;;
75465;SDS011;64049;46.290;44.240;2022-12-18T03:28:58;92.30;;;14.75;;
75465;SDS011;64049;46.290;44.240;2022-12-18T03:31:28;55.58;;;11.73;;
75465;SDS011;64049;46.290;44.240;2022-12-18T03:34:00;45.63;;;11.52;;
75465;SDS011;64049;46.290;44.240;2022-12-18T03:36:49;93.93;;;13.20;;
75465;SDS011;64049;46.290;44.240;2022-12-18T03:39:15;80.53;;;13.30;;
75465;SDS011;64049;46.290;44.240;2022-12-18T03:47:33;85.22;;;16.00;;
75465;SDS011;64049;46.290;44.240;2022-12-18T03:55:54;82.18;;;14.80;;
75465;SDS011;64049;46.290;44.240;2022-12-18T04:01:22;78.68;;;14.20;;
75465;SDS011;64049;46.290;44.240;2022-12-18T04:04:00;85.55;;;12.43;;
75465;SDS011;64049;46.290;44.240;2022-12-18T04:06:29;124.10;;;15.70;;
75465;SDS011;64049;46.290;44.240;2022-12-18T04:08:57;82.03;;;12.10;;
75465;SDS011;64049;46.290;44.240;2022-12-18T04:11:25;133.15;;;15.45;;
75465;SDS011;64049;46.290;44.240;2022-12-18T04:13:55;57.20;;;13.10;;
75465;SDS011;64049;46.290;44.240;2022-12-18T04:16:23;85.00;;;14.43;;
75465;SDS011;64049;46.290;44.240;2022-12-18T04:18:53;126.65;;;16.42;;
75465;SDS011;64049;46.290;44.240;2022-12-18T04:23:49;124.50;;;15.77;;
75465;SDS011;64049;46.290;44.240;2022-12-18T04:26:17;118.10;;;16.50;;
75465;SDS011;64049;46.290;44.240;2022-12-18T04:29:09;139.90;;;16.50;;
75465;SDS011;64049;46.290;44.240;2022-12-18T04:31:36;70.38;;;11.70;;
75465;SDS011;64049;46.290;44.240;2022-12-18T04:34:02;102.38;;;13.98;;
75465;SDS011;64049;46.290;44.240;2022-12-18T04:36:35;48.97;;;9.93;;
75465;SDS011;64049;46.290;44.240;2022-12-18T04:39:01;103.10;;;14.32;;
75465;SDS011;64049;46.290;44.240;2022-12-18T04:41:27;99.03;;;13.20;;
75465;SDS011;64049;46.290;44.240;2022-12-18T04:43:53;154.65;;;17.80;;
75465;SDS011;64049;46.290;44.240;2022-12-18T04:46:19;88.72;;;13.82;;
75465;SDS011;64049;46.290;44.240;2022-12-18T04:48:45;91.50;;;12.70;;
75465;SDS011;64049;46.290;44.240;2022-12-18T04:51:12;82.82;;;14.23;;
75465;SDS011;64049;46.290;44.240;2022-12-18T04:53:38;108.43;;;15.45;;
75465;SDS011;64049;46.290;44.240;2022-12-18T04:58:35;55.28;;;10.63;;
75465;SDS011;64049;46.290;44.240;2022-12-18T05:01:01;97.22;;;15.57;;
75465;SDS011;64049;46.290;44.240;2022-12-18T05:03:28;81.78;;;12.10;;
75465;SDS011;64049;46.290;44.240;2022-12-18T05:05:54;82.43;;;11.57;;
75465;SDS011;64049;46.290;44.240;2022-12-18T05:11:03;73.78;;;12.45;;
75465;SDS011;64049;46.290;44.240;2022-12-18T05:13:34;92.75;;;12.10;;
75465;SDS011;64049;46.290;44.240;2022-12-18T05:16:01;73.65;;;11.10;;
75465;SDS011;64049;46.290;44.240;2022-12-18T05:18:28;62.90;;;11.27;;
75465;SDS011;64049;46.290;44.240;2022-12-18T05:20:54;93.05;;;15.48;;
75465;SDS011;64049;46.290;44.240;2022-12-18T05:23:21;85.88;;;15.65;;
75465;SDS011;64049;46.290;44.240;2022-12-18T05:28:25;101.85;;;13.43;;
75465;SDS011;64049;46.290;44.240;2022-12-18T05:30:53;112.00;;;15.05;;
75465;SDS011;64049;46.290;44.240;2022-12-18T05:33:22;118.03;;;14.45;;
75465;SDS011;64049;46.290;44.240;2022-12-18T05:35:55;72.22;;;14.07;;
75465;SDS011;64049;46.290;44.240;2022-12-18T05:38:23;76.50;;;15.30;;
75465;SDS011;64049;46.290;44.240;2022-12-18T05:40:50;85.60;;;14.80;;
75465;SDS011;64049;46.290;44.240;2022-12-18T05:43:17;142.85;;;17.73;;
75465;SDS011;64049;46.290;44.240;2022-12-18T05:45:44;64.32;;;11.30;;
75465;SDS011;64049;46.290;44.240;2022-12-18T05:48:12;108.80;;;14.35;;
75465;SDS011;64049;46.290;44.240;2022-12-18T05:50:38;94.35;;;13.40;;
75465;SDS011;64049;46.290;44.240;2022-12-18T05:53:06;55.28;;;9.88;;
75465;SDS011;64049;46.290;44.240;2022-12-18T05:55:33;62.97;;;11.70;;
75465;SDS011;64049;46.290;44.240;2022-12-18T05:58:04;121.47;;;16.42;;
75465;SDS011;64049;46.290;44.240;2022-12-18T06:00:32;76.22;;;11.35;;
75465;SDS011;64049;46.290;44.240;2022-12-18T06:03:00;59.50;;;11.35;;
75465;SDS011;64049;46.290;44.240;2022-12-18T06:05:27;90.43;;;15.43;;
75465;SDS011;64049;46.290;44.240;2022-12-18T06:07:54;76.07;;;11.65;;
75465;SDS011;64049;46.290;44.240;2022-12-18T06:10:19;79.70;;;13.85;;
75465;SDS011;64049;46.290;44.240;2022-12-18T06:12:45;73.47;;;12.05;;
75465;SDS011;64049;46.290;44.240;2022-12-18T06:15:11;76.50;;;11.38;;
75465;SDS011;64049;46.290;44.240;2022-12-18T06:17:37;50.42;;;8.88;;
75465;SDS011;64049;46.290;44.240;2022-12-18T06:20:04;108.55;;;12.43;;
75465;SDS011;64049;46.290;44.240;2022-12-18T06:22:31;83.15;;;13.73;;
75465;SDS011;64049;46.290;44.240;2022-12-18T06:24:57;46.35;;;10.52;;
75465;SDS011;64049;46.290;44.240;2022-12-18T06:27:24;77.43;;;14.43;;
75465;SDS011;64049;46.290;44.240;2022-12-18T06:29:50;95.07;;;13.93;;
75465;SDS011;64049;46.290;44.240;2022-12-18T06:32:16;42.10;;;11.07;;
75465;SDS011;64049;46.290;44.240;2022-12-18T06:34:42;39.25;;;8.52;;
75465;SDS011;64049;46.290;44.240;2022-12-18T06:37:08;57.78;;;10.25;;
75465;SDS011;64049;46.290;44.240;2022-12-18T06:39:34;52.60;;;10.35;;
75465;SDS011;64049;46.290;44.240;2022-12-18T06:42:00;25.50;;;8.32;;
75465;SDS011;64049;46.290;44.240;2022-12-18T06:44:26;73.97;;;9.75;;
75465;SDS011;64049;46.290;44.240;2022-12-18T06:46:52;51.25;;;10.18;;
75465;SDS011;64049;46.290;44.240;2022-12-18T06:49:18;61.83;;;9.43;;
75465;SDS011;64049;46.290;44.240;2022-12-18T06:51:44;63.75;;;11.05;;
75465;SDS011;64049;46.290;44.240;2022-12-18T06:54:10;63.45;;;10.45;;
75465;SDS011;64049;46.290;44.240;2022-12-18T06:56:36;77.18;;;10.30;;
75465;SDS011;64049;46.290;44.240;2022-12-18T06:59:01;75.90;;;11.20;;
75465;SDS011;64049;46.290;44.240;2022-12-18T07:01:27;60.67;;;12.02;;
75465;SDS011;64049;46.290;44.240;2022-12-18T07:03:54;41.35;;;8.60;;
75465;SDS011;64049;46.290;44.240;2022-12-18T07:06:22;33.38;;;8.30;;
75465;SDS011;64049;46.290;44.240;2022-12-18T07:08:50;67.70;;;11.07;;
75465;SDS011;64049;46.290;44.240;2022-12-18T07:11:18;51.72;;;9.05;;
75465;SDS011;64049;46.290;44.240;2022-12-18T07:13:45;24.42;;;7.45;;
75465;SDS011;64049;46.290;44.240;2022-12-18T07:16:12;34.20;;;8.55;;
75465;SDS011;64049;46.290;44.240;2022-12-18T07:18:40;62.13;;;9.23;;
75465;SDS011;64049;46.290;44.240;2022-12-18T07:21:07;59.97;;;10.52;;
75465;SDS011;64049;46.290;44.240;2022-12-18T07:23:35;45.30;;;10.70;;
75465;SDS011;64049;46.290;44.240;2022-12-18T07:26:02;47.28;;;9.52;;
75465;SDS011;64049;46.290;44.240;2022-12-18T07:28:32;37.95;;;8.82;;
75465;SDS011;64049;46.290;44.240;2022-12-18T07:31:02;51.47;;;7.68;;
75465;SDS011;64049;46.290;44.240;2022-12-18T07:33:39;61.72;;;11.18;;
75465;SDS011;64049;46.290;44.240;2022-12-18T07:36:06;65.15;;;11.50;;
75465;SDS011;64049;46.290;44.240;2022-12-18T07:38:33;72.20;;;10.77;;
75465;SDS011;64049;46.290;44.240;2022-12-18T07:41:04;35.40;;;9.35;;
75465;SDS011;64049;46.290;44.240;2022-12-18T07:43:33;32.80;;;9.27;;
75465;SDS011;64049;46.290;44.240;2022-12-18T07:46:00;31.33;;;9.95;;
75465;SDS011;64049;46.290;44.240;2022-12-18T07:48:27;68.95;;;13.15;;
75465;SDS011;64049;46.290;44.240;2022-12-18T07:50:53;42.30;;;10.70;;
75465;SDS011;64049;46.290;44.240;2022-12-18T07:53:23;31.15;;;9.38;;
75465;SDS011;64049;46.290;44.240;2022-12-18T07:55:49;35.30;;;8.15;;
75465;SDS011;64049;46.290;44.240;2022-12-18T07:58:20;47.05;;;9.48;;
75465;SDS011;64049;46.290;44.240;2022-12-18T08:00:46;30.95;;;8.45;;
75465;SDS011;64049;46.290;44.240;2022-12-18T08:03:15;35.28;;;9.98;;
75465;SDS011;64049;46.290;44.240;2022-12-18T08:05:42;43.58;;;9.20;;
75465;SDS011;64049;46.290;44.240;2022-12-18T08:08:08;83.18;;;12.65;;
75465;SDS011;64049;46.290;44.240;2022-12-18T08:10:34;86.05;;;12.52;;
75465;SDS011;64049;46.290;44.240;2022-12-18T08:13:00;63.03;;;9.77;;
75465;SDS011;64049;46.290;44.240;2022-12-18T08:15:26;45.17;;;10.05;;
75465;SDS011;64049;46.290;44.240;2022-12-18T08:17:52;54.22;;;9.85;;
75465;SDS011;64049;46.290;44.240;2022-12-18T08:20:21;74.03;;;10.07;;
75465;SDS011;64049;46.290;44.240;2022-12-18T08:22:47;33.97;;;10.32;;
75465;SDS011;64049;46.290;44.240;2022-12-18T08:25:13;41.63;;;10.50;;
75465;SDS011;64049;46.290;44.240;2022-12-18T08:27:39;61.88;;;11.43;;
75465;SDS011;64049;46.290;44.240;2022-12-18T08:30:08;48.75;;;9.93;;
75465;SDS011;64049;46.290;44.240;2022-12-18T08:32:35;31.52;;;9.00;;
75465;SDS011;64049;46.290;44.240;2022-12-18T08:35:01;49.13;;;9.65;;
75465;SDS011;64049;46.290;44.240;2022-12-18T08:37:27;33.67;;;9.85;;
75465;SDS011;64049;46.290;44.240;2022-12-18T08:39:53;30.00;;;9.60;;
75465;SDS011;64049;46.290;44.240;2022-12-18T08:42:19;30.80;;;9.18;;
75465;SDS011;64049;46.290;44.240;2022-12-18T08:45:04;53.42;;;12.20;;
75465;SDS011;64049;46.290;44.240;2022-12-18T08:47:30;48.97;;;9.93;;
75465;SDS011;64049;46.290;44.240;2022-12-18T08:49:56;46.05;;;8.35;;
75465;SDS011;64049;46.290;44.240;2022-12-18T08:52:22;30.88;;;8.30;;
75465;SDS011;64049;46.290;44.240;2022-12-18T08:54:48;30.95;;;7.95;;
75465;SDS011;64049;46.290;44.240;2022-12-18T08:57:14;27.08;;;8.23;;
75465;SDS011;64049;46.290;44.240;2022-12-18T08:59:40;40.67;;;10.73;;
75465;SDS011;64049;46.290;44.240;2022-12-18T09:02:07;35.83;;;10.25;;
75465;SDS011;64049;46.290;44.240;2022-12-18T09:04:35;22.00;;;7.22;;
75465;SDS011;64049;46.290;44.240;2022-12-18T09:07:01;47.13;;;10.55;;
75465;SDS011;64049;46.290;44.240;2022-12-18T09:09:27;22.30;;;7.03;;
75465;SDS011;64049;46.290;44.240;2022-12-18T09:11:53;18.90;;;6.68;;
75465;SDS011;64049;46.290;44.240;2022-12-18T09:14:19;27.13;;;8.02;;
75465;SDS011;64049;46.290;44.240;2022-12-18T09:16:45;24.20;;;8.55;;
75465;SDS011;64049;46.290;44.240;2022-12-18T09:19:11;30.35;;;8.25;;
75465;SDS011;64049;46.290;44.240;2022-12-18T09:21:37;46.47;;;9.75;;
75465;SDS011;64049;46.290;44.240;2022-12-18T09:24:04;25.02;;;7.78;;
75465;SDS011;64049;46.290;44.240;2022-12-18T09:26:31;31.50;;;9.77;;
75465;SDS011;64049;46.290;44.240;2022-12-18T09:28:57;31.63;;;8.88;;
75465;SDS011;64049;46.290;44.240;2022-12-18T09:31:23;42.15;;;10.10;;
75465;SDS011;64049;46.290;44.240;2022-12-18T09:33:50;20.02;;;7.68;;
75465;SDS011;64049;46.290;44.240;2022-12-18T09:36:16;29.33;;;9.13;;
75465;SDS011;64049;46.290;44.240;2022-12-18T09:38:43;37.13;;;9.65;;
75465;SDS011;64049;46.290;44.240;2022-12-18T09:43:58;43.00;;;9.80;;
75465;SDS011;64049;46.290;44.240;2022-12-18T09:46:33;43.03;;;8.40;;
75465;SDS011;64049;46.290;44.240;2022-12-18T09:49:04;37.67;;;8.52;;
75465;SDS011;64049;46.290;44.240;2022-12-18T09:51:37;39.28;;;8.80;;
75465;SDS011;64049;46.290;44.240;2022-12-18T09:54:12;31.77;;;8.52;;
75465;SDS011;64049;46.290;44.240;2022-12-18T09:56:48;62.25;;;9.48;;
75465;SDS011;64049;46.290;44.240;2022-12-18T09:59:19;34.83;;;8.23;;
75465;SDS011;64049;46.290;44.240;2022-12-18T10:04:15;31.92;;;8.63;;
75465;SDS011;64049;46.290;44.240;2022-12-18T10:12:07;32.67;;;8.43;;
75465;SDS011;64049;46.290;44.240;2022-12-18T10:19:58;18.25;;;6.20;;
75465;SDS011;64049;46.290;44.240;2022-12-18T10:27:46;34.05;;;9.00;;
75465;SDS011;64049;46.290;44.240;2022-12-18T10:30:18;57.05;;;9.75;;
75465;SDS011;64049;46.290;44.240;2022-12-18T10:32:46;48.42;;;9.60;;
75465;SDS011;64049;46.290;44.240;2022-12-18T10:35:33;40.47;;;8.90;;
75465;SDS011;64049;46.290;44.240;2022-12-18T10:38:32;29.90;;;10.13;;
75465;SDS011;64049;46.290;44.240;2022-12-18T10:40:58;21.27;;;6.78;;
75465;SDS011;64049;46.290;44.240;2022-12-18T10:46:03;28.70;;;8.32;;
75465;SDS011;64049;46.290;44.240;2022-12-18T10:51:28;32.85;;;9.93;;
75465;SDS011;64049;46.290;44.240;2022-12-18T10:53:57;36.58;;;9.18;;
75465;SDS011;64049;46.290;44.240;2022-12-18T10:56:27;27.38;;;7.82;;
75465;SDS011;64049;46.290;44.240;2022-12-18T10:58:59;31.67;;;9.48;;
75465;SDS011;64049;46.290;44.240;2022-12-18T11:01:27;19.58;;;7.07;;
75465;SDS011;64049;46.290;44.240;2022-12-18T11:06:23;34.20;;;8.77;;
75465;SDS011;64049;46.290;44.240;2022-12-18T11:08:57;26.38;;;8.25;;
75465;SDS011;64049;46.290;44.240;2022-12-18T11:11:28;24.23;;;8.93;;
75465;SDS011;64049;46.290;44.240;2022-12-18T11:16:58;24.00;;;8.00;;
75465;SDS011;64049;46.290;44.240;2022-12-18T11:22:00;21.63;;;8.23;;
75465;SDS011;64049;46.290;44.240;2022-12-18T11:24:33;25.00;;;8.45;;
75465;SDS011;64049;46.290;44.240;2022-12-18T11:27:02;27.33;;;8.75;;
75465;SDS011;64049;46.290;44.240;2022-12-18T11:29:31;27.95;;;8.40;;
75465;SDS011;64049;46.290;44.240;2022-12-18T11:32:32;24.10;;;7.72;;
75465;SDS011;64049;46.290;44.240;2022-12-18T11:35:21;25.33;;;8.02;;
75465;SDS011;64049;46.290;44.240;2022-12-18T11:38:23;37.85;;;8.52;;
75465;SDS011;64049;46.290;44.240;2022-12-18T11:40:56;26.63;;;8.63;;
75465;SDS011;64049;46.290;44.240;2022-12-18T11:46:18;28.00;;;7.65;;
75465;SDS011;64049;46.290;44.240;2022-12-18T11:51:32;24.08;;;8.63;;
75465;SDS011;64049;46.290;44.240;2022-12-18T11:54:09;35.30;;;9.55;;
75465;SDS011;64049;46.290;44.240;2022-12-18T11:56:49;32.15;;;8.23;;
75465;SDS011;64049;46.290;44.240;2022-12-18T12:10:28;20.90;;;6.80;;
75465;SDS011;64049;46.290;44.240;2022-12-18T12:15:52;29.50;;;9.30;;
75465;SDS011;64049;46.290;44.240;2022-12-18T12:21:39;27.67;;;7.05;;
75465;SDS011;64049;46.290;44.240;2022-12-18T12:27:10;23.77;;;7.90;;
75465;SDS011;64049;46.290;44.240;2022-12-18T12:35:08;28.75;;;9.30;;
75465;SDS011;64049;46.290;44.240;2022-12-18T12:40:51;36.63;;;9.65;;
75465;SDS011;64049;46.290;44.240;2022-12-18T12:43:24;32.30;;;9.80;;
75465;SDS011;64049;46.290;44.240;2022-12-18T12:51:06;27.27;;;9.65;;
75465;SDS011;64049;46.290;44.240;2022-12-18T12:53:37;33.17;;;8.98;;
75465;SDS011;64049;46.290;44.240;2022-12-18T13:12:36;50.58;;;12.73;;
75465;SDS011;64049;46.290;44.240;2022-12-18T13:15:21;53.42;;;12.65;;
75465;SDS011;64049;46.290;44.240;2022-12-18T13:17:48;39.05;;;12.82;;
75465;SDS011;64049;46.290;44.240;2022-12-18T13:20:14;40.75;;;10.98;;
75465;SDS011;64049;46.290;44.240;2022-12-18T13:22:45;57.80;;;12.18;;
75465;SDS011;64049;46.290;44.240;2022-12-18T13:25:33;37.58;;;7.10;;
75465;SDS011;64049;46.290;44.240;2022-12-18T13:40:56;77.72;;;12.65;;
75465;SDS011;64049;46.290;44.240;2022-12-18T13:43:53;118.97;;;12.68;;
75465;SDS011;64049;46.290;44.240;2022-12-18T13:48:56;51.05;;;11.10;;
75465;SDS011;64049;46.290;44.240;2022-12-18T13:51:43;39.20;;;9.68;;
75465;SDS011;64049;46.290;44.240;2022-12-18T13:57:03;62.85;;;10.95;;
75465;SDS011;64049;46.290;44.240;2022-12-18T13:59:35;65.93;;;9.05;;
75465;SDS011;64049;46.290;44.240;2022-12-18T14:02:12;45.42;;;8.82;;
75465;SDS011;64049;46.290;44.240;2022-12-18T14:04:44;53.70;;;9.25;;
75465;SDS011;64049;46.290;44.240;2022-12-18T14:07:12;46.13;;;10.48;;
75465;SDS011;64049;46.290;44.240;2022-12-18T14:09:47;39.40;;;8.55;;
75465;SDS011;64049;46.290;44.240;2022-12-18T14:12:17;88.72;;;10.18;;
75465;SDS011;64049;46.290;44.240;2022-12-18T14:15:20;121.30;;;13.80;;
75465;SDS011;64049;46.290;44.240;2022-12-18T14:17:49;72.05;;;11.60;;
75465;SDS011;64049;46.290;44.240;2022-12-18T14:20:16;74.30;;;10.63;;
75465;SDS011;64049;46.290;44.240;2022-12-18T14:22:43;132.90;;;16.60;;
75465;SDS011;64049;46.290;44.240;2022-12-18T14:25:18;89.00;;;12.65;;
75465;SDS011;64049;46.290;44.240;2022-12-18T14:27:47;96.00;;;12.52;;
75465;SDS011;64049;46.290;44.240;2022-12-18T14:32:59;106.28;;;15.93;;
75465;SDS011;64049;46.290;44.240;2022-12-18T14:35:37;104.20;;;12.88;;
75465;SDS011;64049;46.290;44.240;2022-12-18T14:43:24;111.28;;;13.10;;
75465;SDS011;64049;46.290;44.240;2022-12-18T14:45:51;130.93;;;12.98;;
75465;SDS011;64049;46.290;44.240;2022-12-18T14:48:19;196.30;;;19.58;;
75465;SDS011;64049;46.290;44.240;2022-12-18T14:51:12;98.07;;;13.27;;
75465;SDS011;64049;46.290;44.240;2022-12-18T14:53:48;136.82;;;16.85;;
75465;SDS011;64049;46.290;44.240;2022-12-18T14:56:21;128.73;;;14.90;;
75465;SDS011;64049;46.290;44.240;2022-12-18T14:59:01;88.28;;;14.60;;
75465;SDS011;64049;46.290;44.240;2022-12-18T15:01:33;106.25;;;14.20;;
75465;SDS011;64049;46.290;44.240;2022-12-18T15:04:02;171.95;;;17.25;;
75465;SDS011;64049;46.290;44.240;2022-12-18T15:06:34;157.77;;;17.00;;
75465;SDS011;64049;46.290;44.240;2022-12-18T15:09:20;186.65;;;19.30;;
75465;SDS011;64049;46.290;44.240;2022-12-18T15:11:49;71.65;;;10.82;;
75465;SDS011;64049;46.290;44.240;2022-12-18T15:14:24;162.23;;;21.88;;
75465;SDS011;64049;46.290;44.240;2022-12-18T15:17:03;104.43;;;14.05;;
75465;SDS011;64049;46.290;44.240;2022-12-18T15:19:39;99.35;;;12.43;;
75465;SDS011;64049;46.290;44.240;2022-12-18T15:22:26;79.43;;;11.90;;
75465;SDS011;64049;46.290;44.240;2022-12-18T15:24:54;109.00;;;14.25;;
75465;SDS011;64049;46.290;44.240;2022-12-18T15:27:31;93.28;;;14.70;;
75465;SDS011;64049;46.290;44.240;2022-12-18T15:32:33;177.82;;;19.35;;
75465;SDS011;64049;46.290;44.240;2022-12-18T15:37:36;135.32;;;17.35;;
75465;SDS011;64049;46.290;44.240;2022-12-18T15:40:03;224.27;;;24.88;;
75465;SDS011;64049;46.290;44.240;2022-12-18T15:42:29;132.60;;;16.48;;
75465;SDS011;64049;46.290;44.240;2022-12-18T15:45:14;125.22;;;16.33;;
75465;SDS011;64049;46.290;44.240;2022-12-18T15:47:40;189.50;;;20.25;;
75465;SDS011;64049;46.290;44.240;2022-12-18T15:50:09;242.57;;;29.05;;
75465;SDS011;64049;46.290;44.240;2022-12-18T15:52:39;208.73;;;23.30;;
75465;SDS011;64049;46.290;44.240;2022-12-18T15:55:17;201.02;;;23.58;;
75465;SDS011;64049;46.290;44.240;2022-12-18T15:58:07;328.27;;;37.08;;
75465;SDS011;64049;46.290;44.240;2022-12-18T16:00:34;374.15;;;43.78;;
75465;SDS011;64049;46.290;44.240;2022-12-18T16:03:02;257.00;;;31.35;;
75465;SDS011;64049;46.290;44.240;2022-12-18T16:05:29;226.40;;;22.67;;
75465;SDS011;64049;46.290;44.240;2022-12-18T16:07:55;223.65;;;26.38;;
75465;SDS011;64049;46.290;44.240;2022-12-18T16:10:21;129.85;;;13.15;;
75465;SDS011;64049;46.290;44.240;2022-12-18T16:12:48;291.85;;;27.77;;
75465;SDS011;64049;46.290;44.240;2022-12-18T16:15:15;307.67;;;34.10;;
75465;SDS011;64049;46.290;44.240;2022-12-18T16:17:42;320.80;;;33.22;;
75465;SDS011;64049;46.290;44.240;2022-12-18T16:20:13;404.58;;;40.42;;
75465;SDS011;64049;46.290;44.240;2022-12-18T16:22:42;314.17;;;28.80;;
75465;SDS011;64049;46.290;44.240;2022-12-18T16:25:15;158.48;;;18.67;;
75465;SDS011;64049;46.290;44.240;2022-12-18T16:30:13;250.65;;;25.60;;
75465;SDS011;64049;46.290;44.240;2022-12-18T16:32:40;294.92;;;26.85;;
75465;SDS011;64049;46.290;44.240;2022-12-18T16:35:08;210.43;;;23.65;;
75465;SDS011;64049;46.290;44.240;2022-12-18T16:37:35;77.80;;;11.95;;
75465;SDS011;64049;46.290;44.240;2022-12-18T16:40:01;208.57;;;22.17;;
75465;SDS011;64049;46.290;44.240;2022-12-18T16:42:27;213.60;;;19.52;;
75465;SDS011;64049;46.290;44.240;2022-12-18T16:44:53;258.80;;;27.35;;
75465;SDS011;64049;46.290;44.240;2022-12-18T16:47:19;291.42;;;31.58;;
75465;SDS011;64049;46.290;44.240;2022-12-18T16:49:45;160.90;;;16.92;;
75465;SDS011;64049;46.290;44.240;2022-12-18T16:52:11;132.25;;;14.10;;
75465;SDS011;64049;46.290;44.240;2022-12-18T16:54:38;218.38;;;22.95;;
75465;SDS011;64049;46.290;44.240;2022-12-18T16:57:04;297.80;;;29.63;;
75465;SDS011;64049;46.290;44.240;2022-12-18T16:59:30;256.00;;;25.48;;
75465;SDS011;64049;46.290;44.240;2022-12-18T17:01:59;120.80;;;14.55;;
75465;SDS011;64049;46.290;44.240;2022-12-18T17:04:26;182.60;;;21.63;;
75465;SDS011;64049;46.290;44.240;2022-12-18T17:06:52;132.68;;;14.90;;
75465;SDS011;64049;46.290;44.240;2022-12-18T17:09:18;348.98;;;36.38;;
75465;SDS011;64049;46.290;44.240;2022-12-18T17:11:49;269.70;;;30.02;;
75465;SDS011;64049;46.290;44.240;2022-12-18T17:18:02;219.13;;;25.88;;
75465;SDS011;64049;46.290;44.240;2022-12-18T17:24:16;214.60;;;18.60;;
75465;SDS011;64049;46.290;44.240;2022-12-18T17:26:44;200.25;;;19.45;;
75465;SDS011;64049;46.290;44.240;2022-12-18T17:29:14;245.13;;;28.33;;
75465;SDS011;64049;46.290;44.240;2022-12-18T17:31:42;324.55;;;27.13;;
75465;SDS011;64049;46.290;44.240;2022-12-18T17:34:08;328.67;;;33.55;;
75465;SDS011;64049;46.290;44.240;2022-12-18T17:36:48;361.50;;;36.15;;
75465;SDS011;64049;46.290;44.240;2022-12-18T17:39:18;138.98;;;14.90;;
75465;SDS011;64049;46.290;44.240;2022-12-18T17:41:45;250.63;;;27.13;;
75465;SDS011;64049;46.290;44.240;2022-12-18T17:44:11;123.88;;;16.15;;
75465;SDS011;64049;46.290;44.240;2022-12-18T17:46:40;205.80;;;21.73;;
75465;SDS011;64049;46.290;44.240;2022-12-18T17:49:06;222.27;;;28.88;;